sensor_id;sensor_type;location;lat;lon;timestamp;pressure;altitude;pressure_sealevel;temperature;humidity
11198;BME280;5655;48.744;9.162;2023-04-28T00:00:20;95979.25;;;13.52;100.00
11198;BME280;5655;48.744;9.162;2023-04-28T00:02:45;95984.25;;;13.53;100.00
11198;BME280;5655;48.744;9.162;2023-04-28T00:05:12;95995.41;;;13.45;100.00
11198;BME280;5655;48.744;9.162;2023-04-28T00:07:38;95993.91;;;13.40;100.00
11198;BME280;5655;48.744;9.162;2023-04-28T00:10:03;95984.31;;;13.36;100.00
11198;BME280;5655;48.744;9.162;2023-04-28T00:12:29;95973.19;;;13.27;100.00
11198;BME280;5655;48.744;9.162;2023-04-28T00:14:54;95972.06;;;13.28;100.00
11198;BME280;5655;48.744;9.162;2023-04-28T00:17:19;95971.31;;;13.24;100.00
11198;BME280;5655;48.744;9.162;2023-04-28T00:19:45;95976.63;;;13.31;100.00
11198;BME280;5655;48.744;9.162;2023-04-28T00:22:10;95975.88;;;13.30;100.00
11198;BME280;5655;48.744;9.162;2023-04-28T00:24:35;95972.78;;;13.35;100.00
11198;BME280;5655;48.744;9.162;2023-04-28T00:27:01;95966.06;;;13.79;100.00
11198;BME280;5655;48.744;9.162;2023-04-28T00:29:27;95974.25;;;13.54;100.00
11198;BME280;5655;48.744;9.162;2023-04-28T00:31:53;95962.41;;;13.34;100.00
11198;BME280;5655;48.744;9.162;2023-04-28T00:34:18;95961.25;;;13.38;100.00
11198;BME280;5655;48.744;9.162;2023-04-28T00:36:43;95966.59;;;13.42;100.00
11198;BME280;5655;48.744;9.162;2023-04-28T00:39:09;95958.97;;;13.37;100.00
11198;BME280;5655;48.744;9.162;2023-04-28T00:41:34;95957.47;;;13.22;100.00
11198;BME280;5655;48.744;9.162;2023-04-28T00:43:59;95955.09;;;13.45;100.00
11198;BME280;5655;48.744;9.162;2023-04-28T00:46:29;95957.19;;;13.85;100.00
11198;BME280;5655;48.744;9.162;2023-04-28T00:48:57;95958.84;;;13.65;100.00
11198;BME280;5655;48.744;9.162;2023-04-28T00:51:22;95958.91;;;13.54;100.00
11198;BME280;5655;48.744;9.162;2023-04-28T00:53:49;95955.75;;;13.67;100.00
11198;BME280;5655;48.744;9.162;2023-04-28T00:56:14;95959.66;;;13.58;100.00
11198;BME280;5655;48.744;9.162;2023-04-28T00:58:40;95949.31;;;13.50;100.00
11198;BME280;5655;48.744;9.162;2023-04-28T01:01:07;95945.84;;;13.49;100.00
11198;BME280;5655;48.744;9.162;2023-04-28T01:03:34;95939.72;;;13.49;100.00
11198;BME280;5655;48.744;9.162;2023-04-28T01:06:03;95944.25;;;13.66;100.00
11198;BME280;5655;48.744;9.162;2023-04-28T01:08:30;95936.09;;;13.77;100.00
11198;BME280;5655;48.744;9.162;2023-04-28T01:10:55;95934.25;;;13.59;100.00
11198;BME280;5655;48.744;9.162;2023-04-28T01:13:20;95935.44;;;13.58;100.00
11198;BME280;5655;48.744;9.162;2023-04-28T01:15:46;95926.66;;;13.44;100.00
11198;BME280;5655;48.744;9.162;2023-04-28T01:18:11;95941.91;;;13.68;100.00
11198;BME280;5655;48.744;9.162;2023-04-28T01:20:37;95941.78;;;13.89;100.00
11198;BME280;5655;48.744;9.162;2023-04-28T01:23:03;95935.28;;;13.87;100.00
11198;BME280;5655;48.744;9.162;2023-04-28T01:25:28;95920.41;;;13.72;100.00
11198;BME280;5655;48.744;9.162;2023-04-28T01:27:54;95917.69;;;13.72;100.00
11198;BME280;5655;48.744;9.162;2023-04-28T01:30:19;95923.81;;;13.72;100.00
11198;BME280;5655;48.744;9.162;2023-04-28T01:32:45;95910.38;;;13.72;100.00
11198;BME280;5655;48.744;9.162;2023-04-28T01:35:10;95916.97;;;13.64;100.00
11198;BME280;5655;48.744;9.162;2023-04-28T01:37:35;95916.94;;;13.71;100.00
11198;BME280;5655;48.744;9.162;2023-04-28T01:40:01;95901.22;;;13.66;100.00
11198;BME280;5655;48.744;9.162;2023-04-28T01:42:26;95910.38;;;13.72;100.00
11198;BME280;5655;48.744;9.162;2023-04-28T01:44:51;95910.28;;;13.86;100.00
11198;BME280;5655;48.744;9.162;2023-04-28T01:47:17;95914.56;;;13.77;100.00
11198;BME280;5655;48.744;9.162;2023-04-28T01:49:42;95910.28;;;13.86;100.00
11198;BME280;5655;48.744;9.162;2023-04-28T01:52:07;95908.47;;;13.76;100.00
11198;BME280;5655;48.744;9.162;2023-04-28T01:54:33;95900.81;;;13.71;100.00
11198;BME280;5655;48.744;9.162;2023-04-28T01:56:58;95899.66;;;13.69;100.00
11198;BME280;5655;48.744;9.162;2023-04-28T01:59:42;95901.91;;;13.77;100.00
11198;BME280;5655;48.744;9.162;2023-04-28T02:02:07;95894.28;;;13.65;100.00
11198;BME280;5655;48.744;9.162;2023-04-28T02:04:32;95895.09;;;13.62;100.00
11198;BME280;5655;48.744;9.162;2023-04-28T02:06:58;95891.28;;;13.56;100.00
11198;BME280;5655;48.744;9.162;2023-04-28T02:09:23;95888.63;;;13.49;100.00
11198;BME280;5655;48.744;9.162;2023-04-28T02:11:49;95884.66;;;13.71;100.00
11198;BME280;5655;48.744;9.162;2023-04-28T02:14:14;95873.44;;;13.83;100.00
11198;BME280;5655;48.744;9.162;2023-04-28T02:16:40;95871.97;;;13.68;100.00
11198;BME280;5655;48.744;9.162;2023-04-28T02:19:05;95871.25;;;13.64;100.00
11198;BME280;5655;48.744;9.162;2023-04-28T02:21:30;95871.28;;;13.60;100.00
11198;BME280;5655;48.744;9.162;2023-04-28T02:23:57;95882.50;;;14.03;100.00
11198;BME280;5655;48.744;9.162;2023-04-28T02:26:22;95886.44;;;13.92;100.00
11198;BME280;5655;48.744;9.162;2023-04-28T02:28:48;95887.97;;;13.89;100.00
11198;BME280;5655;48.744;9.162;2023-04-28T02:31:14;95890.63;;;13.96;100.00
11198;BME280;5655;48.744;9.162;2023-04-28T02:33:39;95880.53;;;14.07;100.00
11198;BME280;5655;48.744;9.162;2023-04-28T02:36:06;95872.28;;;14.29;100.00
11198;BME280;5655;48.744;9.162;2023-04-28T02:38:32;95861.53;;;14.29;100.00
11198;BME280;5655;48.744;9.162;2023-04-28T02:41:01;95862.31;;;14.26;100.00
11198;BME280;5655;48.744;9.162;2023-04-28T02:43:29;95868.44;;;14.30;100.00
11198;BME280;5655;48.744;9.162;2023-04-28T02:45:54;95869.16;;;14.34;100.00
11198;BME280;5655;48.744;9.162;2023-04-28T02:48:20;95875.28;;;14.45;100.00
11198;BME280;5655;48.744;9.162;2023-04-28T02:50:45;95874.53;;;14.41;100.00
11198;BME280;5655;48.744;9.162;2023-04-28T02:53:11;95879.53;;;14.39;100.00
11198;BME280;5655;48.744;9.162;2023-04-28T02:55:37;95870.25;;;14.47;100.00
11198;BME280;5655;48.744;9.162;2023-04-28T02:58:02;95873.53;;;14.65;100.00
11198;BME280;5655;48.744;9.162;2023-04-28T03:00:28;95879.94;;;14.34;100.00
11198;BME280;5655;48.744;9.162;2023-04-28T03:02:53;95890.81;;;14.23;100.00
11198;BME280;5655;48.744;9.162;2023-04-28T03:05:19;95888.44;;;14.36;100.00
11198;BME280;5655;48.744;9.162;2023-04-28T03:07:44;95879.25;;;14.26;100.00
11198;BME280;5655;48.744;9.162;2023-04-28T03:10:09;95879.59;;;14.28;100.00
11198;BME280;5655;48.744;9.162;2023-04-28T03:12:35;95870.94;;;14.10;100.00
11198;BME280;5655;48.744;9.162;2023-04-28T03:15:01;95868.59;;;14.12;100.00
11198;BME280;5655;48.744;9.162;2023-04-28T03:17:26;95867.81;;;14.12;100.00
11198;BME280;5655;48.744;9.162;2023-04-28T03:19:51;95867.41;;;14.17;100.00
11198;BME280;5655;48.744;9.162;2023-04-28T03:22:17;95863.13;;;14.23;100.00
11198;BME280;5655;48.744;9.162;2023-04-28T03:24:42;95862.25;;;14.33;100.00
11198;BME280;5655;48.744;9.162;2023-04-28T03:27:07;95860.00;;;14.28;100.00
11198;BME280;5655;48.744;9.162;2023-04-28T03:29:33;95859.13;;;14.45;100.00
11198;BME280;5655;48.744;9.162;2023-04-28T03:31:58;95855.38;;;14.32;100.00
11198;BME280;5655;48.744;9.162;2023-04-28T03:34:23;95857.38;;;14.21;100.00
11198;BME280;5655;48.744;9.162;2023-04-28T03:36:49;95850.91;;;14.15;100.00
11198;BME280;5655;48.744;9.162;2023-04-28T03:39:14;95849.66;;;14.23;100.00
11198;BME280;5655;48.744;9.162;2023-04-28T03:41:39;95853.09;;;14.27;100.00
11198;BME280;5655;48.744;9.162;2023-04-28T03:44:05;95855.41;;;14.25;100.00
11198;BME280;5655;48.744;9.162;2023-04-28T03:46:30;95857.72;;;14.26;100.00
11198;BME280;5655;48.744;9.162;2023-04-28T03:48:56;95854.22;;;14.29;100.00
11198;BME280;5655;48.744;9.162;2023-04-28T03:51:21;95849.88;;;14.42;100.00
11198;BME280;5655;48.744;9.162;2023-04-28T03:53:47;95852.19;;;14.44;100.00
11198;BME280;5655;48.744;9.162;2023-04-28T03:56:12;95849.84;;;14.46;100.00
11198;BME280;5655;48.744;9.162;2023-04-28T03:58:37;95847.63;;;14.41;100.00
11198;BME280;5655;48.744;9.162;2023-04-28T04:01:02;95839.81;;;14.50;100.00
11198;BME280;5655;48.744;9.162;2023-04-28T04:03:29;95836.09;;;14.37;100.00
11198;BME280;5655;48.744;9.162;2023-04-28T04:05:54;95846.09;;;14.40;100.00
11198;BME280;5655;48.744;9.162;2023-04-28T04:08:20;95838.22;;;14.12;100.00
11198;BME280;5655;48.744;9.162;2023-04-28T04:10:45;95841.59;;;14.23;100.00
11198;BME280;5655;48.744;9.162;2023-04-28T04:13:11;95836.28;;;14.12;100.00
11198;BME280;5655;48.744;9.162;2023-04-28T04:15:36;95833.22;;;14.14;100.00
11198;BME280;5655;48.744;9.162;2023-04-28T04:18:01;95825.28;;;14.44;100.00
11198;BME280;5655;48.744;9.162;2023-04-28T04:20:27;95833.72;;;14.42;100.00
11198;BME280;5655;48.744;9.162;2023-04-28T04:22:52;95835.03;;;14.27;100.00
11198;BME280;5655;48.744;9.162;2023-04-28T04:25:17;95835.44;;;14.22;100.00
11198;BME280;5655;48.744;9.162;2023-04-28T04:27:43;95837.44;;;14.15;100.00
11198;BME280;5655;48.744;9.162;2023-04-28T04:30:09;95826.19;;;14.27;100.00
11198;BME280;5655;48.744;9.162;2023-04-28T04:32:34;95829.38;;;14.15;100.00
11198;BME280;5655;48.744;9.162;2023-04-28T04:34:59;95822.72;;;14.26;100.00
11198;BME280;5655;48.744;9.162;2023-04-28T04:37:25;95820.72;;;14.34;100.00
11198;BME280;5655;48.744;9.162;2023-04-28T04:39:51;95827.88;;;14.06;100.00
11198;BME280;5655;48.744;9.162;2023-04-28T04:42:16;95825.16;;;14.14;100.00
11198;BME280;5655;48.744;9.162;2023-04-28T04:44:41;95832.38;;;14.24;100.00
11198;BME280;5655;48.744;9.162;2023-04-28T04:47:06;95827.09;;;14.09;100.00
11198;BME280;5655;48.744;9.162;2023-04-28T04:49:32;95825.88;;;14.18;100.00
11198;BME280;5655;48.744;9.162;2023-04-28T04:51:57;95823.25;;;14.11;100.00
11198;BME280;5655;48.744;9.162;2023-04-28T04:54:23;95821.88;;;14.33;100.00
11198;BME280;5655;48.744;9.162;2023-04-28T04:56:48;95815.50;;;14.16;100.00
11198;BME280;5655;48.744;9.162;2023-04-28T04:59:14;95815.59;;;14.05;100.00
11198;BME280;5655;48.744;9.162;2023-04-28T05:01:39;95797.94;;;14.04;100.00
11198;BME280;5655;48.744;9.162;2023-04-28T05:04:04;95790.31;;;13.96;100.00
11198;BME280;5655;48.744;9.162;2023-04-28T05:06:30;95784.28;;;13.81;100.00
11198;BME280;5655;48.744;9.162;2023-04-28T05:08:55;95778.75;;;13.99;100.00
11198;BME280;5655;48.744;9.162;2023-04-28T05:11:22;95768.59;;;13.73;100.00
11198;BME280;5655;48.744;9.162;2023-04-28T05:13:48;95775.78;;;13.86;100.00
11198;BME280;5655;48.744;9.162;2023-04-28T05:16:13;95775.94;;;13.69;100.00
11198;BME280;5655;48.744;9.162;2023-04-28T05:18:38;95759.56;;;13.97;100.00
11198;BME280;5655;48.744;9.162;2023-04-28T05:21:04;95763.38;;;13.99;100.00
11198;BME280;5655;48.744;9.162;2023-04-28T05:23:30;95756.72;;;13.70;100.00
11198;BME280;5655;48.744;9.162;2023-04-28T05:25:55;95752.72;;;13.85;100.00
11198;BME280;5655;48.744;9.162;2023-04-28T05:28:21;95754.53;;;13.58;100.00
11198;BME280;5655;48.744;9.162;2023-04-28T05:30:46;95752.03;;;13.78;100.00
11198;BME280;5655;48.744;9.162;2023-04-28T05:33:11;95759.09;;;14.05;100.00
11198;BME280;5655;48.744;9.162;2023-04-28T05:35:38;95751.91;;;13.92;100.00
11198;BME280;5655;48.744;9.162;2023-04-28T05:38:03;95753.41;;;13.96;100.00
11198;BME280;5655;48.744;9.162;2023-04-28T05:40:28;95749.69;;;13.83;100.00
11198;BME280;5655;48.744;9.162;2023-04-28T05:42:54;95748.88;;;13.86;100.00
11198;BME280;5655;48.744;9.162;2023-04-28T05:45:19;95742.44;;;13.80;100.00
11198;BME280;5655;48.744;9.162;2023-04-28T05:47:44;95745.22;;;13.66;100.00
11198;BME280;5655;48.744;9.162;2023-04-28T05:50:10;95745.13;;;13.80;100.00
11198;BME280;5655;48.744;9.162;2023-04-28T05:52:35;95738.25;;;13.76;100.00
11198;BME280;5655;48.744;9.162;2023-04-28T05:55:01;95740.59;;;13.70;100.00
11198;BME280;5655;48.744;9.162;2023-04-28T05:57:26;95742.88;;;13.72;100.00
11198;BME280;5655;48.744;9.162;2023-04-28T05:59:52;95735.75;;;13.51;100.00
11198;BME280;5655;48.744;9.162;2023-04-28T06:02:17;95728.31;;;13.66;100.00
11198;BME280;5655;48.744;9.162;2023-04-28T06:04:42;95730.63;;;13.67;100.00
11198;BME280;5655;48.744;9.162;2023-04-28T06:07:09;95731.72;;;13.73;100.00
11198;BME280;5655;48.744;9.162;2023-04-28T06:09:35;95739.34;;;13.78;100.00
11198;BME280;5655;48.744;9.162;2023-04-28T06:12:00;95737.09;;;13.73;100.00
11198;BME280;5655;48.744;9.162;2023-04-28T06:14:27;95730.69;;;13.60;100.00
11198;BME280;5655;48.744;9.162;2023-04-28T06:16:53;95719.50;;;13.65;100.00
11198;BME280;5655;48.744;9.162;2023-04-28T06:19:18;95716.16;;;13.50;100.00
11198;BME280;5655;48.744;9.162;2023-04-28T06:21:44;95709.97;;;13.57;100.00
11198;BME280;5655;48.744;9.162;2023-04-28T06:24:10;95719.00;;;13.77;100.00
11198;BME280;5655;48.744;9.162;2023-04-28T06:26:35;95708.47;;;13.52;100.00
11198;BME280;5655;48.744;9.162;2023-04-28T06:29:00;95699.75;;;13.38;100.00
11198;BME280;5655;48.744;9.162;2023-04-28T06:31:26;95703.84;;;13.53;100.00
11198;BME280;5655;48.744;9.162;2023-04-28T06:33:51;95693.94;;;13.43;100.00
11198;BME280;5655;48.744;9.162;2023-04-28T06:36:16;95698.19;;;13.85;100.00
11198;BME280;5655;48.744;9.162;2023-04-28T06:38:43;95700.44;;;13.90;100.00
11198;BME280;5655;48.744;9.162;2023-04-28T06:41:09;95695.00;;;13.56;100.00
11198;BME280;5655;48.744;9.162;2023-04-28T06:43:35;95693.44;;;13.55;100.00
11198;BME280;5655;48.744;9.162;2023-04-28T06:46:01;95695.97;;;13.76;100.00
11198;BME280;5655;48.744;9.162;2023-04-28T06:48:27;95694.94;;;14.00;100.00
11198;BME280;5655;48.744;9.162;2023-04-28T06:50:52;95696.56;;;13.91;100.00
11198;BME280;5655;48.744;9.162;2023-04-28T06:53:17;95698.94;;;13.85;100.00
11198;BME280;5655;48.744;9.162;2023-04-28T06:55:43;95685.06;;;13.90;100.00
11198;BME280;5655;48.744;9.162;2023-04-28T06:58:08;95684.91;;;14.04;100.00
11198;BME280;5655;48.744;9.162;2023-04-28T07:00:34;95680.56;;;13.77;100.00
11198;BME280;5655;48.744;9.162;2023-04-28T07:02:59;95683.41;;;14.00;100.00
11198;BME280;5655;48.744;9.162;2023-04-28T07:05:25;95687.44;;;13.85;100.00
11198;BME280;5655;48.744;9.162;2023-04-28T07:07:52;95678.19;;;13.86;100.00
11198;BME280;5655;48.744;9.162;2023-04-28T07:10:17;95669.56;;;14.01;100.00
11198;BME280;5655;48.744;9.162;2023-04-28T07:12:43;95668.53;;;13.92;100.00
11198;BME280;5655;48.744;9.162;2023-04-28T07:15:08;95669.53;;;14.05;100.00
11198;BME280;5655;48.744;9.162;2023-04-28T07:17:34;95670.06;;;13.93;100.00
11198;BME280;5655;48.744;9.162;2023-04-28T07:19:59;95660.88;;;14.21;100.00
11198;BME280;5655;48.744;9.162;2023-04-28T07:22:25;95658.53;;;14.26;100.00
11198;BME280;5655;48.744;9.162;2023-04-28T07:24:51;95665.50;;;14.20;100.00
11198;BME280;5655;48.744;9.162;2023-04-28T07:27:17;95675.50;;;14.20;100.00
11198;BME280;5655;48.744;9.162;2023-04-28T07:29:42;95667.91;;;14.15;100.00
11198;BME280;5655;48.744;9.162;2023-04-28T07:32:08;95659.72;;;14.22;100.00
11198;BME280;5655;48.744;9.162;2023-04-28T07:34:34;95661.84;;;14.37;100.00
11198;BME280;5655;48.744;9.162;2023-04-28T07:37:01;95658.41;;;14.37;100.00
11198;BME280;5655;48.744;9.162;2023-04-28T07:39:26;95661.34;;;14.49;100.00
11198;BME280;5655;48.744;9.162;2023-04-28T07:41:52;95657.66;;;14.33;100.00
11198;BME280;5655;48.744;9.162;2023-04-28T07:44:18;95664.97;;;14.36;100.00
11198;BME280;5655;48.744;9.162;2023-04-28T07:46:43;95657.41;;;14.54;100.00
11198;BME280;5655;48.744;9.162;2023-04-28T07:49:09;95656.81;;;14.43;100.00
11198;BME280;5655;48.744;9.162;2023-04-28T07:51:34;95652.88;;;14.47;100.00
11198;BME280;5655;48.744;9.162;2023-04-28T07:53:59;95648.47;;;14.30;100.00
11198;BME280;5655;48.744;9.162;2023-04-28T07:56:25;95645.22;;;14.46;100.00
11198;BME280;5655;48.744;9.162;2023-04-28T07:58:51;95652.22;;;14.40;100.00
11198;BME280;5655;48.744;9.162;2023-04-28T08:01:17;95654.25;;;14.29;100.00
11198;BME280;5655;48.744;9.162;2023-04-28T08:03:42;95663.25;;;14.15;100.00
11198;BME280;5655;48.744;9.162;2023-04-28T08:06:07;95662.56;;;14.07;100.00
11198;BME280;5655;48.744;9.162;2023-04-28T08:08:33;95665.78;;;14.29;100.00
11198;BME280;5655;48.744;9.162;2023-04-28T08:10:59;95685.69;;;14.39;100.00
11198;BME280;5655;48.744;9.162;2023-04-28T08:13:24;95694.91;;;14.04;100.00
11198;BME280;5655;48.744;9.162;2023-04-28T08:15:51;95714.94;;;13.99;100.00
11198;BME280;5655;48.744;9.162;2023-04-28T08:18:16;95730.28;;;14.02;100.00
11198;BME280;5655;48.744;9.162;2023-04-28T08:20:41;95740.31;;;14.02;100.00
11198;BME280;5655;48.744;9.162;2023-04-28T08:23:07;95747.53;;;14.08;100.00
11198;BME280;5655;48.744;9.162;2023-04-28T08:25:33;95754.06;;;14.07;100.00
11198;BME280;5655;48.744;9.162;2023-04-28T08:27:58;95766.16;;;14.30;100.00
11198;BME280;5655;48.744;9.162;2023-04-28T08:30:24;95797.75;;;14.22;100.00
11198;BME280;5655;48.744;9.162;2023-04-28T08:32:49;95805.94;;;14.12;100.00
11198;BME280;5655;48.744;9.162;2023-04-28T08:35:15;95776.56;;;14.28;100.00
11198;BME280;5655;48.744;9.162;2023-04-28T08:37:41;95785.38;;;14.32;100.00
11198;BME280;5655;48.744;9.162;2023-04-28T08:40:07;95789.94;;;14.35;100.00
11198;BME280;5655;48.744;9.162;2023-04-28T08:42:36;95799.59;;;14.29;100.00
11198;BME280;5655;48.744;9.162;2023-04-28T08:45:03;95813.25;;;14.52;100.00
11198;BME280;5655;48.744;9.162;2023-04-28T08:47:37;95812.59;;;14.78;100.00
11198;BME280;5655;48.744;9.162;2023-04-28T08:50:06;95828.31;;;14.83;100.00
11198;BME280;5655;48.744;9.162;2023-04-28T08:52:33;95822.59;;;14.78;100.00
11198;BME280;5655;48.744;9.162;2023-04-28T08:55:00;95827.78;;;14.95;100.00
11198;BME280;5655;48.744;9.162;2023-04-28T08:57:27;95831.16;;;14.69;100.00
11198;BME280;5655;48.744;9.162;2023-04-28T08:59:55;95839.19;;;14.73;100.00
11198;BME280;5655;48.744;9.162;2023-04-28T09:02:20;95840.88;;;14.93;100.00
11198;BME280;5655;48.744;9.162;2023-04-28T09:04:46;95851.84;;;14.76;100.00
11198;BME280;5655;48.744;9.162;2023-04-28T09:07:12;95850.28;;;14.78;100.00
11198;BME280;5655;48.744;9.162;2023-04-28T09:09:38;95849.22;;;15.03;100.00
11198;BME280;5655;48.744;9.162;2023-04-28T09:12:05;95852.59;;;15.10;100.00
11198;BME280;5655;48.744;9.162;2023-04-28T09:14:32;95846.31;;;15.20;100.00
11198;BME280;5655;48.744;9.162;2023-04-28T09:16:59;95856.06;;;15.11;100.00
11198;BME280;5655;48.744;9.162;2023-04-28T09:19:35;95854.28;;;15.31;100.00
11198;BME280;5655;48.744;9.162;2023-04-28T09:22:01;95857.56;;;15.15;100.00
11198;BME280;5655;48.744;9.162;2023-04-28T09:24:32;95860.84;;;15.30;100.00
11198;BME280;5655;48.744;9.162;2023-04-28T09:27:02;95865.97;;;15.21;100.00
11198;BME280;5655;48.744;9.162;2023-04-28T09:29:30;95863.31;;;15.48;100.00
11198;BME280;5655;48.744;9.162;2023-04-28T09:34:42;95860.41;;;15.65;100.00
11198;BME280;5655;48.744;9.162;2023-04-28T09:37:20;95859.38;;;15.56;100.00
11198;BME280;5655;48.744;9.162;2023-04-28T09:39:47;95859.56;;;15.38;100.00
11198;BME280;5655;48.744;9.162;2023-04-28T09:42:35;95865.75;;;15.92;100.00
11198;BME280;5655;48.744;9.162;2023-04-28T09:45:12;95865.34;;;15.70;100.00
11198;BME280;5655;48.744;9.162;2023-04-28T09:47:43;95874.06;;;15.51;100.00
11198;BME280;5655;48.744;9.162;2023-04-28T09:50:13;95873.47;;;15.94;100.00
11198;BME280;5655;48.744;9.162;2023-04-28T09:52:55;95877.69;;;15.95;100.00
11198;BME280;5655;48.744;9.162;2023-04-28T09:55:21;95866.13;;;15.67;100.00
11198;BME280;5655;48.744;9.162;2023-04-28T09:57:48;95871.53;;;15.94;100.00
11198;BME280;5655;48.744;9.162;2023-04-28T10:00:15;95876.00;;;16.27;100.00
11198;BME280;5655;48.744;9.162;2023-04-28T10:02:42;95866.97;;;16.14;100.00
11198;BME280;5655;48.744;9.162;2023-04-28T10:05:08;95876.91;;;16.21;100.00
11198;BME280;5655;48.744;9.162;2023-04-28T10:07:33;95865.25;;;16.24;100.00
11198;BME280;5655;48.744;9.162;2023-04-28T10:10:00;95873.66;;;16.29;100.00
11198;BME280;5655;48.744;9.162;2023-04-28T10:12:26;95864.19;;;16.41;100.00
11198;BME280;5655;48.744;9.162;2023-04-28T10:14:52;95856.47;;;16.43;100.00
11198;BME280;5655;48.744;9.162;2023-04-28T10:17:21;95869.59;;;16.41;100.00
11198;BME280;5655;48.744;9.162;2023-04-28T10:19:49;95864.44;;;16.50;100.00
11198;BME280;5655;48.744;9.162;2023-04-28T10:25:32;95848.91;;;16.77;100.00
11198;BME280;5655;48.744;9.162;2023-04-28T10:27:59;95844.06;;;16.89;100.00
11198;BME280;5655;48.744;9.162;2023-04-28T10:30:28;95831.38;;;16.86;100.00
11198;BME280;5655;48.744;9.162;2023-04-28T10:38:06;95841.72;;;16.91;100.00
11198;BME280;5655;48.744;9.162;2023-04-28T10:40:36;95837.06;;;17.11;100.00
11198;BME280;5655;48.744;9.162;2023-04-28T10:43:03;95840.47;;;16.95;100.00
11198;BME280;5655;48.744;9.162;2023-04-28T10:48:12;95839.13;;;16.84;100.00
11198;BME280;5655;48.744;9.162;2023-04-28T10:53:20;95833.31;;;17.05;100.00
11198;BME280;5655;48.744;9.162;2023-04-28T10:56:04;95829.19;;;17.36;100.00
11198;BME280;5655;48.744;9.162;2023-04-28T10:58:30;95838.44;;;17.55;100.00
11198;BME280;5655;48.744;9.162;2023-04-28T11:04:04;95835.38;;;17.89;100.00
11198;BME280;5655;48.744;9.162;2023-04-28T11:19:20;95821.56;;;17.99;100.00
11198;BME280;5655;48.744;9.162;2023-04-28T11:21:46;95826.00;;;17.77;100.00
11198;BME280;5655;48.744;9.162;2023-04-28T11:24:12;95824.38;;;17.80;100.00
11198;BME280;5655;48.744;9.162;2023-04-28T11:26:39;95820.97;;;17.92;100.00
11198;BME280;5655;48.744;9.162;2023-04-28T11:29:05;95819.22;;;17.85;100.00
11198;BME280;5655;48.744;9.162;2023-04-28T11:31:30;95815.84;;;17.81;100.00
11198;BME280;5655;48.744;9.162;2023-04-28T11:33:58;95817.94;;;18.06;100.00
11198;BME280;5655;48.744;9.162;2023-04-28T11:36:27;95811.03;;;18.34;100.00
11198;BME280;5655;48.744;9.162;2023-04-28T11:38:53;95814.19;;;18.32;100.00
11198;BME280;5655;48.744;9.162;2023-04-28T11:41:20;95814.66;;;18.43;100.00
11198;BME280;5655;48.744;9.162;2023-04-28T11:43:45;95806.16;;;18.12;100.00
11198;BME280;5655;48.744;9.162;2023-04-28T11:46:15;95817.28;;;18.47;100.00
11198;BME280;5655;48.744;9.162;2023-04-28T11:48:42;95811.78;;;18.50;100.00
11198;BME280;5655;48.744;9.162;2023-04-28T11:51:07;95806.13;;;18.45;100.00
11198;BME280;5655;48.744;9.162;2023-04-28T11:53:42;95796.97;;;18.84;100.00
11198;BME280;5655;48.744;9.162;2023-04-28T11:56:08;95793.66;;;18.64;100.00
11198;BME280;5655;48.744;9.162;2023-04-28T11:58:34;95793.94;;;18.53;100.00
11198;BME280;5655;48.744;9.162;2023-04-28T12:01:12;95799.47;;;18.91;100.00
11198;BME280;5655;48.744;9.162;2023-04-28T12:03:43;95800.19;;;18.79;100.00
11198;BME280;5655;48.744;9.162;2023-04-28T12:06:08;95804.63;;;18.73;100.00
11198;BME280;5655;48.744;9.162;2023-04-28T12:08:34;95809.59;;;18.45;100.00
11198;BME280;5655;48.744;9.162;2023-04-28T12:11:07;95807.31;;;18.73;100.00
11198;BME280;5655;48.744;9.162;2023-04-28T12:13:34;95810.09;;;18.56;100.00
11198;BME280;5655;48.744;9.162;2023-04-28T12:16:01;95799.34;;;18.82;100.00
11198;BME280;5655;48.744;9.162;2023-04-28T12:18:28;95784.66;;;18.67;100.00
11198;BME280;5655;48.744;9.162;2023-04-28T12:20:53;95805.31;;;18.77;100.00
11198;BME280;5655;48.744;9.162;2023-04-28T12:23:35;95791.72;;;19.18;100.00
11198;BME280;5655;48.744;9.162;2023-04-28T12:26:01;95800.28;;;19.29;100.00
11198;BME280;5655;48.744;9.162;2023-04-28T12:28:36;95812.91;;;19.36;100.00
11198;BME280;5655;48.744;9.162;2023-04-28T12:31:04;95817.19;;;19.08;100.00
11198;BME280;5655;48.744;9.162;2023-04-28T12:33:29;95816.38;;;19.36;100.00
11198;BME280;5655;48.744;9.162;2023-04-28T12:35:56;95819.81;;;19.24;100.00
11198;BME280;5655;48.744;9.162;2023-04-28T12:38:22;95820.28;;;19.35;100.00
11198;BME280;5655;48.744;9.162;2023-04-28T12:40:48;95831.16;;;19.35;100.00
11198;BME280;5655;48.744;9.162;2023-04-28T12:43:13;95828.19;;;19.30;100.00
11198;BME280;5655;48.744;9.162;2023-04-28T12:45:40;95837.91;;;19.02;100.00
11198;BME280;5655;48.744;9.162;2023-04-28T12:48:05;95828.72;;;19.25;100.00
11198;BME280;5655;48.744;9.162;2023-04-28T12:50:31;95829.50;;;19.25;100.00
11198;BME280;5655;48.744;9.162;2023-04-28T12:52:57;95829.91;;;19.11;100.00
11198;BME280;5655;48.744;9.162;2023-04-28T12:55:23;95831.09;;;19.10;100.00
11198;BME280;5655;48.744;9.162;2023-04-28T12:57:48;95827.00;;;19.18;100.00
11198;BME280;5655;48.744;9.162;2023-04-28T13:00:14;95822.34;;;19.19;100.00
11198;BME280;5655;48.744;9.162;2023-04-28T13:02:40;95829.38;;;19.16;100.00
11198;BME280;5655;48.744;9.162;2023-04-28T13:05:06;95821.09;;;19.07;100.00
11198;BME280;5655;48.744;9.162;2023-04-28T13:07:32;95819.78;;;18.99;100.00
11198;BME280;5655;48.744;9.162;2023-04-28T13:09:58;95823.69;;;18.98;100.00
11198;BME280;5655;48.744;9.162;2023-04-28T13:12:23;95812.03;;;19.26;100.00
11198;BME280;5655;48.744;9.162;2023-04-28T13:14:48;95812.03;;;19.39;100.00
11198;BME280;5655;48.744;9.162;2023-04-28T13:17:14;95792.09;;;19.45;100.00
11198;BME280;5655;48.744;9.162;2023-04-28T13:19:40;95771.22;;;19.30;100.00
11198;BME280;5655;48.744;9.162;2023-04-28T13:22:05;95773.38;;;19.22;100.00
11198;BME280;5655;48.744;9.162;2023-04-28T13:24:31;95779.72;;;19.44;100.00
11198;BME280;5655;48.744;9.162;2023-04-28T13:27:00;95784.25;;;19.85;100.00